sensor_id;sensor_type;location;lat;lon;timestamp;P1;durP1;ratioP1;P2;durP2;ratioP2
45620;SDS011;31345;51.522;10.702;2023-05-07T00:02:25;27.92;;;20.33;;
45620;SDS011;31345;51.522;10.702;2023-05-07T00:04:52;27.95;;;19.15;;
45620;SDS011;31345;51.522;10.702;2023-05-07T00:07:21;26.92;;;19.27;;
45620;SDS011;31345;51.522;10.702;2023-05-07T00:09:55;28.98;;;19.15;;
45620;SDS011;31345;51.522;10.702;2023-05-07T00:12:23;24.63;;;18.30;;
45620;SDS011;31345;51.522;10.702;2023-05-07T00:14:56;27.33;;;19.25;;
45620;SDS011;31345;51.522;10.702;2023-05-07T00:17:24;28.00;;;19.15;;
45620;SDS011;31345;51.522;10.702;2023-05-07T00:19:51;25.50;;;19.27;;
45620;SDS011;31345;51.522;10.702;2023-05-07T00:22:19;28.77;;;19.30;;
45620;SDS011;31345;51.522;10.702;2023-05-07T00:24:53;27.60;;;19.75;;
45620;SDS011;31345;51.522;10.702;2023-05-07T00:27:21;28.92;;;20.45;;
45620;SDS011;31345;51.522;10.702;2023-05-07T00:29:48;25.75;;;19.17;;
45620;SDS011;31345;51.522;10.702;2023-05-07T00:32:16;28.90;;;20.27;;
45620;SDS011;31345;51.522;10.702;2023-05-07T00:34:49;28.33;;;20.13;;
45620;SDS011;31345;51.522;10.702;2023-05-07T00:37:22;31.20;;;20.70;;
45620;SDS011;31345;51.522;10.702;2023-05-07T00:39:55;27.75;;;19.05;;
45620;SDS011;31345;51.522;10.702;2023-05-07T00:42:28;26.45;;;19.70;;
45620;SDS011;31345;51.522;10.702;2023-05-07T00:44:55;30.52;;;20.48;;
45620;SDS011;31345;51.522;10.702;2023-05-07T00:47:28;25.38;;;18.88;;
45620;SDS011;31345;51.522;10.702;2023-05-07T00:50:01;26.83;;;18.73;;
45620;SDS011;31345;51.522;10.702;2023-05-07T00:52:30;27.95;;;19.08;;
45620;SDS011;31345;51.522;10.702;2023-05-07T00:54:59;24.65;;;18.80;;
45620;SDS011;31345;51.522;10.702;2023-05-07T00:57:32;27.00;;;18.23;;
45620;SDS011;31345;51.522;10.702;2023-05-07T01:00:08;28.25;;;19.45;;
45620;SDS011;31345;51.522;10.702;2023-05-07T01:02:38;28.33;;;18.38;;
45620;SDS011;31345;51.522;10.702;2023-05-07T01:05:11;28.75;;;18.92;;
45620;SDS011;31345;51.522;10.702;2023-05-07T01:07:46;25.98;;;17.38;;
45620;SDS011;31345;51.522;10.702;2023-05-07T01:10:21;26.00;;;17.88;;
45620;SDS011;31345;51.522;10.702;2023-05-07T01:12:49;27.75;;;18.50;;
45620;SDS011;31345;51.522;10.702;2023-05-07T01:15:22;26.27;;;17.58;;
45620;SDS011;31345;51.522;10.702;2023-05-07T01:17:50;26.27;;;18.38;;
45620;SDS011;31345;51.522;10.702;2023-05-07T01:20:24;26.55;;;17.55;;
45620;SDS011;31345;51.522;10.702;2023-05-07T01:22:55;25.52;;;17.50;;
45620;SDS011;31345;51.522;10.702;2023-05-07T01:25:29;28.73;;;19.83;;
45620;SDS011;31345;51.522;10.702;2023-05-07T01:28:00;27.63;;;18.33;;
45620;SDS011;31345;51.522;10.702;2023-05-07T01:30:30;27.02;;;18.73;;
45620;SDS011;31345;51.522;10.702;2023-05-07T01:33:08;27.63;;;18.48;;
45620;SDS011;31345;51.522;10.702;2023-05-07T01:35:43;25.85;;;17.70;;
45620;SDS011;31345;51.522;10.702;2023-05-07T01:40:43;29.10;;;19.45;;
45620;SDS011;31345;51.522;10.702;2023-05-07T01:43:11;25.08;;;17.95;;
45620;SDS011;31345;51.522;10.702;2023-05-07T01:45:44;28.27;;;18.35;;
45620;SDS011;31345;51.522;10.702;2023-05-07T01:48:13;22.98;;;15.85;;
45620;SDS011;31345;51.522;10.702;2023-05-07T01:50:47;24.42;;;16.42;;
45620;SDS011;31345;51.522;10.702;2023-05-07T01:53:16;23.35;;;16.80;;
45620;SDS011;31345;51.522;10.702;2023-05-07T01:55:44;23.30;;;16.88;;
45620;SDS011;31345;51.522;10.702;2023-05-07T01:58:16;25.38;;;16.13;;
45620;SDS011;31345;51.522;10.702;2023-05-07T02:00:44;23.30;;;15.32;;
45620;SDS011;31345;51.522;10.702;2023-05-07T02:03:12;21.77;;;14.18;;
45620;SDS011;31345;51.522;10.702;2023-05-07T02:05:57;22.58;;;15.00;;
45620;SDS011;31345;51.522;10.702;2023-05-07T02:08:36;23.00;;;16.77;;
45620;SDS011;31345;51.522;10.702;2023-05-07T02:11:09;23.60;;;16.15;;
45620;SDS011;31345;51.522;10.702;2023-05-07T02:13:37;23.33;;;16.65;;
45620;SDS011;31345;51.522;10.702;2023-05-07T02:16:09;25.25;;;15.45;;
45620;SDS011;31345;51.522;10.702;2023-05-07T02:18:43;25.55;;;17.08;;
45620;SDS011;31345;51.522;10.702;2023-05-07T02:21:16;23.50;;;16.80;;
45620;SDS011;31345;51.522;10.702;2023-05-07T02:23:45;23.35;;;15.65;;
45620;SDS011;31345;51.522;10.702;2023-05-07T02:26:12;21.55;;;15.60;;
45620;SDS011;31345;51.522;10.702;2023-05-07T02:28:40;20.77;;;14.65;;
45620;SDS011;31345;51.522;10.702;2023-05-07T02:31:07;20.98;;;14.43;;
45620;SDS011;31345;51.522;10.702;2023-05-07T02:33:40;20.00;;;14.15;;
45620;SDS011;31345;51.522;10.702;2023-05-07T02:36:09;21.40;;;13.32;;
45620;SDS011;31345;51.522;10.702;2023-05-07T02:39:04;17.83;;;12.98;;
45620;SDS011;31345;51.522;10.702;2023-05-07T02:41:32;18.73;;;13.73;;
45620;SDS011;31345;51.522;10.702;2023-05-07T02:44:04;18.00;;;12.80;;
45620;SDS011;31345;51.522;10.702;2023-05-07T02:46:32;17.85;;;12.98;;
45620;SDS011;31345;51.522;10.702;2023-05-07T02:49:09;18.02;;;12.82;;
45620;SDS011;31345;51.522;10.702;2023-05-07T02:51:41;16.73;;;12.32;;
45620;SDS011;31345;51.522;10.702;2023-05-07T02:54:17;17.10;;;12.18;;
45620;SDS011;31345;51.522;10.702;2023-05-07T02:56:49;18.75;;;13.00;;
45620;SDS011;31345;51.522;10.702;2023-05-07T02:59:22;18.10;;;12.60;;
45620;SDS011;31345;51.522;10.702;2023-05-07T03:01:52;17.77;;;12.70;;
45620;SDS011;31345;51.522;10.702;2023-05-07T03:04:24;18.73;;;12.68;;
45620;SDS011;31345;51.522;10.702;2023-05-07T03:06:57;18.63;;;13.23;;
45620;SDS011;31345;51.522;10.702;2023-05-07T03:09:26;19.23;;;13.85;;
45620;SDS011;31345;51.522;10.702;2023-05-07T03:11:58;18.55;;;13.68;;
45620;SDS011;31345;51.522;10.702;2023-05-07T03:14:28;18.85;;;13.48;;
45620;SDS011;31345;51.522;10.702;2023-05-07T03:16:55;20.98;;;14.57;;
45620;SDS011;31345;51.522;10.702;2023-05-07T03:19:28;21.75;;;15.50;;
45620;SDS011;31345;51.522;10.702;2023-05-07T03:21:56;21.30;;;14.50;;
45620;SDS011;31345;51.522;10.702;2023-05-07T03:24:30;25.13;;;16.55;;
45620;SDS011;31345;51.522;10.702;2023-05-07T03:27:03;22.58;;;15.13;;
45620;SDS011;31345;51.522;10.702;2023-05-07T03:29:35;23.48;;;16.23;;
45620;SDS011;31345;51.522;10.702;2023-05-07T03:32:08;24.98;;;16.15;;
45620;SDS011;31345;51.522;10.702;2023-05-07T03:34:36;23.58;;;14.55;;
45620;SDS011;31345;51.522;10.702;2023-05-07T03:37:09;22.20;;;15.05;;
45620;SDS011;31345;51.522;10.702;2023-05-07T03:39:38;20.02;;;14.18;;
45620;SDS011;31345;51.522;10.702;2023-05-07T03:42:05;21.65;;;15.25;;
45620;SDS011;31345;51.522;10.702;2023-05-07T03:44:38;23.77;;;15.00;;
45620;SDS011;31345;51.522;10.702;2023-05-07T03:47:06;23.73;;;15.27;;
45620;SDS011;31345;51.522;10.702;2023-05-07T03:49:38;25.33;;;15.73;;
45620;SDS011;31345;51.522;10.702;2023-05-07T03:52:11;22.75;;;15.32;;
45620;SDS011;31345;51.522;10.702;2023-05-07T03:54:45;22.15;;;15.20;;
45620;SDS011;31345;51.522;10.702;2023-05-07T03:57:15;22.73;;;14.73;;
45620;SDS011;31345;51.522;10.702;2023-05-07T03:59:42;20.70;;;14.00;;
45620;SDS011;31345;51.522;10.702;2023-05-07T04:02:10;22.45;;;15.13;;
45620;SDS011;31345;51.522;10.702;2023-05-07T04:04:42;19.88;;;14.07;;
45620;SDS011;31345;51.522;10.702;2023-05-07T04:07:10;21.92;;;14.43;;
45620;SDS011;31345;51.522;10.702;2023-05-07T04:09:42;20.23;;;13.73;;
45620;SDS011;31345;51.522;10.702;2023-05-07T04:12:11;19.30;;;13.75;;
45620;SDS011;31345;51.522;10.702;2023-05-07T04:14:39;18.20;;;12.75;;
45620;SDS011;31345;51.522;10.702;2023-05-07T04:17:06;18.45;;;12.43;;
45620;SDS011;31345;51.522;10.702;2023-05-07T04:19:43;17.73;;;12.02;;
45620;SDS011;31345;51.522;10.702;2023-05-07T04:22:12;18.63;;;12.65;;
45620;SDS011;31345;51.522;10.702;2023-05-07T04:24:44;16.55;;;11.38;;
45620;SDS011;31345;51.522;10.702;2023-05-07T04:27:19;16.38;;;11.85;;
45620;SDS011;31345;51.522;10.702;2023-05-07T04:29:52;17.85;;;12.38;;
45620;SDS011;31345;51.522;10.702;2023-05-07T04:32:27;16.00;;;11.40;;
45620;SDS011;31345;51.522;10.702;2023-05-07T04:35:00;14.75;;;10.35;;
45620;SDS011;31345;51.522;10.702;2023-05-07T04:37:33;14.82;;;9.98;;
45620;SDS011;31345;51.522;10.702;2023-05-07T04:40:01;14.23;;;10.23;;
45620;SDS011;31345;51.522;10.702;2023-05-07T04:42:30;15.75;;;10.50;;
45620;SDS011;31345;51.522;10.702;2023-05-07T04:44:59;12.82;;;9.15;;
45620;SDS011;31345;51.522;10.702;2023-05-07T04:47:32;11.25;;;7.85;;
45620;SDS011;31345;51.522;10.702;2023-05-07T04:50:02;10.93;;;7.75;;
45620;SDS011;31345;51.522;10.702;2023-05-07T04:52:35;10.43;;;7.65;;
45620;SDS011;31345;51.522;10.702;2023-05-07T04:55:08;11.40;;;7.57;;
45620;SDS011;31345;51.522;10.702;2023-05-07T04:57:40;10.15;;;6.72;;
45620;SDS011;31345;51.522;10.702;2023-05-07T05:00:10;9.93;;;6.78;;
45620;SDS011;31345;51.522;10.702;2023-05-07T05:02:41;9.35;;;6.47;;
45620;SDS011;31345;51.522;10.702;2023-05-07T05:05:15;8.32;;;5.93;;
45620;SDS011;31345;51.522;10.702;2023-05-07T05:07:44;9.70;;;6.22;;
45620;SDS011;31345;51.522;10.702;2023-05-07T05:10:12;9.45;;;6.13;;
45620;SDS011;31345;51.522;10.702;2023-05-07T05:12:47;8.50;;;6.20;;
45620;SDS011;31345;51.522;10.702;2023-05-07T05:15:20;6.85;;;5.28;;
45620;SDS011;31345;51.522;10.702;2023-05-07T05:17:47;9.30;;;5.93;;
45620;SDS011;31345;51.522;10.702;2023-05-07T05:20:20;9.20;;;6.30;;
45620;SDS011;31345;51.522;10.702;2023-05-07T05:22:53;8.10;;;6.05;;
45620;SDS011;31345;51.522;10.702;2023-05-07T05:25:26;8.57;;;6.25;;
45620;SDS011;31345;51.522;10.702;2023-05-07T05:28:01;8.38;;;6.22;;
45620;SDS011;31345;51.522;10.702;2023-05-07T05:30:34;8.80;;;6.07;;
45620;SDS011;31345;51.522;10.702;2023-05-07T05:33:02;8.10;;;6.10;;
45620;SDS011;31345;51.522;10.702;2023-05-07T05:35:31;9.15;;;6.43;;
45620;SDS011;31345;51.522;10.702;2023-05-07T05:40:30;9.80;;;6.75;;
45620;SDS011;31345;51.522;10.702;2023-05-07T05:43:06;9.38;;;6.65;;
45620;SDS011;31345;51.522;10.702;2023-05-07T05:45:39;10.25;;;7.18;;
45620;SDS011;31345;51.522;10.702;2023-05-07T05:48:07;8.57;;;6.30;;
45620;SDS011;31345;51.522;10.702;2023-05-07T05:50:41;12.05;;;8.23;;
45620;SDS011;31345;51.522;10.702;2023-05-07T05:53:09;13.50;;;9.30;;
45620;SDS011;31345;51.522;10.702;2023-05-07T05:55:38;15.07;;;10.05;;
45620;SDS011;31345;51.522;10.702;2023-05-07T05:58:07;15.32;;;10.80;;
45620;SDS011;31345;51.522;10.702;2023-05-07T06:00:45;15.63;;;11.05;;
45620;SDS011;31345;51.522;10.702;2023-05-07T06:03:20;12.85;;;10.07;;
45620;SDS011;31345;51.522;10.702;2023-05-07T06:05:48;14.18;;;10.27;;
45620;SDS011;31345;51.522;10.702;2023-05-07T06:08:21;12.85;;;8.85;;
45620;SDS011;31345;51.522;10.702;2023-05-07T06:10:49;10.60;;;7.57;;
45620;SDS011;31345;51.522;10.702;2023-05-07T06:13:18;10.05;;;7.57;;
45620;SDS011;31345;51.522;10.702;2023-05-07T06:15:46;11.18;;;8.32;;
45620;SDS011;31345;51.522;10.702;2023-05-07T06:18:14;11.32;;;8.63;;
45620;SDS011;31345;51.522;10.702;2023-05-07T06:20:41;10.50;;;7.95;;
45620;SDS011;31345;51.522;10.702;2023-05-07T06:23:17;12.20;;;7.65;;
45620;SDS011;31345;51.522;10.702;2023-05-07T06:25:47;10.52;;;7.78;;
45620;SDS011;31345;51.522;10.702;2023-05-07T06:28:22;9.15;;;6.30;;
45620;SDS011;31345;51.522;10.702;2023-05-07T06:30:50;8.88;;;6.32;;
45620;SDS011;31345;51.522;10.702;2023-05-07T06:33:23;8.30;;;5.85;;
45620;SDS011;31345;51.522;10.702;2023-05-07T06:35:51;9.10;;;6.28;;
45620;SDS011;31345;51.522;10.702;2023-05-07T06:38:20;8.68;;;6.70;;
45620;SDS011;31345;51.522;10.702;2023-05-07T06:40:49;11.02;;;7.38;;
45620;SDS011;31345;51.522;10.702;2023-05-07T06:43:23;11.65;;;8.50;;
45620;SDS011;31345;51.522;10.702;2023-05-07T06:45:56;13.70;;;8.52;;
45620;SDS011;31345;51.522;10.702;2023-05-07T06:48:24;11.77;;;9.00;;
45620;SDS011;31345;51.522;10.702;2023-05-07T06:50:59;12.02;;;8.65;;
45620;SDS011;31345;51.522;10.702;2023-05-07T06:53:28;10.45;;;8.52;;
45620;SDS011;31345;51.522;10.702;2023-05-07T06:56:03;13.27;;;9.55;;
45620;SDS011;31345;51.522;10.702;2023-05-07T06:58:32;14.40;;;9.63;;
45620;SDS011;31345;51.522;10.702;2023-05-07T07:01:00;15.05;;;10.07;;
45620;SDS011;31345;51.522;10.702;2023-05-07T07:03:28;13.20;;;9.48;;
45620;SDS011;31345;51.522;10.702;2023-05-07T07:06:01;16.20;;;10.50;;
45620;SDS011;31345;51.522;10.702;2023-05-07T07:08:30;15.10;;;10.85;;
45620;SDS011;31345;51.522;10.702;2023-05-07T07:10:57;15.85;;;10.95;;
45620;SDS011;31345;51.522;10.702;2023-05-07T07:13:25;16.70;;;11.02;;
45620;SDS011;31345;51.522;10.702;2023-05-07T07:16:00;14.07;;;10.15;;
45620;SDS011;31345;51.522;10.702;2023-05-07T07:18:33;16.42;;;10.85;;
45620;SDS011;31345;51.522;10.702;2023-05-07T07:21:01;17.08;;;11.45;;
45620;SDS011;31345;51.522;10.702;2023-05-07T07:23:30;16.88;;;12.07;;
45620;SDS011;31345;51.522;10.702;2023-05-07T07:25:57;17.50;;;12.25;;
45620;SDS011;31345;51.522;10.702;2023-05-07T07:28:26;16.80;;;11.60;;
45620;SDS011;31345;51.522;10.702;2023-05-07T07:30:54;17.30;;;12.45;;
45620;SDS011;31345;51.522;10.702;2023-05-07T07:33:28;18.00;;;12.48;;
45620;SDS011;31345;51.522;10.702;2023-05-07T07:36:01;18.67;;;13.05;;
45620;SDS011;31345;51.522;10.702;2023-05-07T07:38:34;18.38;;;13.63;;
45620;SDS011;31345;51.522;10.702;2023-05-07T07:41:03;20.10;;;13.43;;
45620;SDS011;31345;51.522;10.702;2023-05-07T07:43:36;22.75;;;14.80;;
45620;SDS011;31345;51.522;10.702;2023-05-07T07:46:04;20.55;;;14.93;;
45620;SDS011;31345;51.522;10.702;2023-05-07T07:48:39;20.10;;;14.07;;
45620;SDS011;31345;51.522;10.702;2023-05-07T07:51:06;20.13;;;14.13;;
45620;SDS011;31345;51.522;10.702;2023-05-07T07:53:39;20.33;;;14.38;;
45620;SDS011;31345;51.522;10.702;2023-05-07T07:56:07;18.95;;;13.68;;
45620;SDS011;31345;51.522;10.702;2023-05-07T07:58:39;20.88;;;14.82;;
45620;SDS011;31345;51.522;10.702;2023-05-07T08:01:12;23.00;;;15.35;;
45620;SDS011;31345;51.522;10.702;2023-05-07T08:03:47;21.25;;;15.35;;
45620;SDS011;31345;51.522;10.702;2023-05-07T08:06:20;23.90;;;16.15;;
45620;SDS011;31345;51.522;10.702;2023-05-07T08:08:48;23.35;;;15.85;;
45620;SDS011;31345;51.522;10.702;2023-05-07T08:11:16;22.20;;;15.75;;
45620;SDS011;31345;51.522;10.702;2023-05-07T08:13:49;21.50;;;15.38;;
45620;SDS011;31345;51.522;10.702;2023-05-07T08:16:16;21.73;;;15.50;;
45620;SDS011;31345;51.522;10.702;2023-05-07T08:18:44;20.33;;;14.43;;
45620;SDS011;31345;51.522;10.702;2023-05-07T08:21:13;21.45;;;14.95;;
45620;SDS011;31345;51.522;10.702;2023-05-07T08:23:46;21.17;;;14.68;;
45620;SDS011;31345;51.522;10.702;2023-05-07T08:26:13;22.35;;;15.00;;
45620;SDS011;31345;51.522;10.702;2023-05-07T08:28:42;24.35;;;15.15;;
45620;SDS011;31345;51.522;10.702;2023-05-07T08:31:10;20.23;;;15.30;;
45620;SDS011;31345;51.522;10.702;2023-05-07T08:33:40;20.33;;;14.45;;
45620;SDS011;31345;51.522;10.702;2023-05-07T08:36:14;23.38;;;15.93;;
45620;SDS011;31345;51.522;10.702;2023-05-07T08:38:46;21.70;;;15.35;;
45620;SDS011;31345;51.522;10.702;2023-05-07T08:41:19;21.08;;;16.05;;
45620;SDS011;31345;51.522;10.702;2023-05-07T08:43:52;22.60;;;15.25;;
45620;SDS011;31345;51.522;10.702;2023-05-07T08:46:31;23.80;;;16.38;;
45620;SDS011;31345;51.522;10.702;2023-05-07T08:49:04;21.80;;;15.35;;
45620;SDS011;31345;51.522;10.702;2023-05-07T08:51:33;20.42;;;14.63;;
45620;SDS011;31345;51.522;10.702;2023-05-07T08:54:07;21.05;;;15.23;;
45620;SDS011;31345;51.522;10.702;2023-05-07T08:56:38;23.30;;;16.75;;
45620;SDS011;31345;51.522;10.702;2023-05-07T08:59:12;22.58;;;16.67;;
45620;SDS011;31345;51.522;10.702;2023-05-07T09:01:45;22.98;;;17.17;;
45620;SDS011;31345;51.522;10.702;2023-05-07T09:04:19;21.60;;;16.67;;
45620;SDS011;31345;51.522;10.702;2023-05-07T09:06:48;23.48;;;17.90;;
45620;SDS011;31345;51.522;10.702;2023-05-07T09:11:47;22.42;;;16.35;;
45620;SDS011;31345;51.522;10.702;2023-05-07T09:14:18;25.38;;;17.38;;
45620;SDS011;31345;51.522;10.702;2023-05-07T09:16:48;23.37;;;16.50;;
45620;SDS011;31345;51.522;10.702;2023-05-07T09:19:16;22.15;;;16.52;;
45620;SDS011;31345;51.522;10.702;2023-05-07T09:21:59;24.40;;;17.30;;
45620;SDS011;31345;51.522;10.702;2023-05-07T09:24:33;21.90;;;16.10;;
45620;SDS011;31345;51.522;10.702;2023-05-07T09:29:33;18.83;;;14.73;;
45620;SDS011;31345;51.522;10.702;2023-05-07T09:32:08;19.85;;;15.05;;
45620;SDS011;31345;51.522;10.702;2023-05-07T09:34:41;19.00;;;13.98;;
45620;SDS011;31345;51.522;10.702;2023-05-07T09:37:16;21.08;;;16.08;;
45620;SDS011;31345;51.522;10.702;2023-05-07T09:39:44;18.98;;;14.40;;
45620;SDS011;31345;51.522;10.702;2023-05-07T09:42:22;19.80;;;14.93;;
45620;SDS011;31345;51.522;10.702;2023-05-07T09:44:58;22.05;;;15.00;;
45620;SDS011;31345;51.522;10.702;2023-05-07T09:47:36;19.45;;;15.30;;
45620;SDS011;31345;51.522;10.702;2023-05-07T09:50:06;22.48;;;15.85;;
45620;SDS011;31345;51.522;10.702;2023-05-07T09:52:45;21.08;;;15.98;;
45620;SDS011;31345;51.522;10.702;2023-05-07T09:55:18;22.20;;;17.52;;
45620;SDS011;31345;51.522;10.702;2023-05-07T09:57:51;23.92;;;17.88;;
45620;SDS011;31345;51.522;10.702;2023-05-07T10:00:26;21.55;;;16.63;;
45620;SDS011;31345;51.522;10.702;2023-05-07T10:03:03;23.05;;;17.52;;
45620;SDS011;31345;51.522;10.702;2023-05-07T10:05:46;22.00;;;17.30;;
45620;SDS011;31345;51.522;10.702;2023-05-07T10:08:16;23.05;;;17.52;;
45620;SDS011;31345;51.522;10.702;2023-05-07T10:10:48;23.17;;;17.15;;
45620;SDS011;31345;51.522;10.702;2023-05-07T10:13:20;23.38;;;17.88;;
45620;SDS011;31345;51.522;10.702;2023-05-07T10:15:57;22.90;;;16.60;;
45620;SDS011;31345;51.522;10.702;2023-05-07T10:21:04;23.10;;;16.85;;
45620;SDS011;31345;51.522;10.702;2023-05-07T10:23:37;24.48;;;18.08;;
45620;SDS011;31345;51.522;10.702;2023-05-07T10:26:07;28.70;;;19.33;;
45620;SDS011;31345;51.522;10.702;2023-05-07T10:28:43;24.42;;;17.98;;
45620;SDS011;31345;51.522;10.702;2023-05-07T10:31:18;24.38;;;17.13;;
45620;SDS011;31345;51.522;10.702;2023-05-07T10:34:10;20.55;;;17.23;;
45620;SDS011;31345;51.522;10.702;2023-05-07T10:36:41;19.25;;;15.63;;
45620;SDS011;31345;51.522;10.702;2023-05-07T10:39:16;21.80;;;16.67;;
45620;SDS011;31345;51.522;10.702;2023-05-07T10:41:49;20.25;;;15.20;;
45620;SDS011;31345;51.522;10.702;2023-05-07T10:44:26;18.95;;;15.30;;
45620;SDS011;31345;51.522;10.702;2023-05-07T10:59:30;18.73;;;14.45;;
45620;SDS011;31345;51.522;10.702;2023-05-07T11:02:16;17.92;;;14.77;;
45620;SDS011;31345;51.522;10.702;2023-05-07T11:07:56;20.00;;;14.30;;
45620;SDS011;31345;51.522;10.702;2023-05-07T11:16:25;19.98;;;15.23;;
45620;SDS011;31345;51.522;10.702;2023-05-07T11:19:03;18.13;;;14.27;;
45620;SDS011;31345;51.522;10.702;2023-05-07T11:21:42;21.10;;;15.98;;
45620;SDS011;31345;51.522;10.702;2023-05-07T11:24:37;17.70;;;13.82;;
45620;SDS011;31345;51.522;10.702;2023-05-07T11:27:07;18.27;;;15.15;;
45620;SDS011;31345;51.522;10.702;2023-05-07T11:29:37;18.40;;;15.13;;
45620;SDS011;31345;51.522;10.702;2023-05-07T11:32:14;19.52;;;15.73;;
45620;SDS011;31345;51.522;10.702;2023-05-07T11:34:54;20.58;;;16.13;;
45620;SDS011;31345;51.522;10.702;2023-05-07T11:37:23;17.88;;;14.60;;
45620;SDS011;31345;51.522;10.702;2023-05-07T11:40:04;20.80;;;16.50;;
45620;SDS011;31345;51.522;10.702;2023-05-07T11:42:39;20.17;;;15.60;;
45620;SDS011;31345;51.522;10.702;2023-05-07T11:45:10;22.35;;;16.40;;
45620;SDS011;31345;51.522;10.702;2023-05-07T11:47:42;19.17;;;16.10;;
45620;SDS011;31345;51.522;10.702;2023-05-07T11:50:11;18.60;;;15.35;;
45620;SDS011;31345;51.522;10.702;2023-05-07T11:52:38;17.38;;;14.60;;
45620;SDS011;31345;51.522;10.702;2023-05-07T11:55:11;17.30;;;14.45;;
45620;SDS011;31345;51.522;10.702;2023-05-07T11:57:43;18.75;;;14.52;;
45620;SDS011;31345;51.522;10.702;2023-05-07T12:00:18;15.32;;;13.48;;
45620;SDS011;31345;51.522;10.702;2023-05-07T12:02:51;15.48;;;12.90;;
45620;SDS011;31345;51.522;10.702;2023-05-07T12:05:24;13.38;;;11.98;;
45620;SDS011;31345;51.522;10.702;2023-05-07T12:07:57;14.65;;;12.48;;
45620;SDS011;31345;51.522;10.702;2023-05-07T12:10:29;16.58;;;13.43;;
45620;SDS011;31345;51.522;10.702;2023-05-07T12:13:02;13.90;;;12.35;;
45620;SDS011;31345;51.522;10.702;2023-05-07T12:15:31;14.85;;;13.35;;
45620;SDS011;31345;51.522;10.702;2023-05-07T12:18:01;15.48;;;13.88;;
45620;SDS011;31345;51.522;10.702;2023-05-07T12:20:34;14.73;;;12.77;;
45620;SDS011;31345;51.522;10.702;2023-05-07T12:23:03;14.18;;;12.52;;
45620;SDS011;31345;51.522;10.702;2023-05-07T12:25:31;14.48;;;12.75;;
45620;SDS011;31345;51.522;10.702;2023-05-07T12:28:07;14.15;;;12.65;;
45620;SDS011;31345;51.522;10.702;2023-05-07T12:30:44;13.45;;;12.10;;
45620;SDS011;31345;51.522;10.702;2023-05-07T12:33:18;13.75;;;12.35;;
45620;SDS011;31345;51.522;10.702;2023-05-07T12:35:56;14.65;;;13.05;;
45620;SDS011;31345;51.522;10.702;2023-05-07T12:38:33;14.30;;;12.23;;
45620;SDS011;31345;51.522;10.702;2023-05-07T12:41:04;16.08;;;13.15;;
45620;SDS011;31345;51.522;10.702;2023-05-07T12:43:39;14.32;;;12.90;;
45620;SDS011;31345;51.522;10.702;2023-05-07T12:46:08;12.95;;;11.65;;
45620;SDS011;31345;51.522;10.702;2023-05-07T12:48:43;13.05;;;11.75;;
45620;SDS011;31345;51.522;10.702;2023-05-07T12:51:16;14.13;;;11.80;;
45620;SDS011;31345;51.522;10.702;2023-05-07T12:53:49;12.10;;;10.90;;
45620;SDS011;31345;51.522;10.702;2023-05-07T12:56:21;13.32;;;11.63;;
45620;SDS011;31345;51.522;10.702;2023-05-07T12:58:49;11.35;;;10.23;;
45620;SDS011;31345;51.522;10.702;2023-05-07T13:01:28;11.73;;;9.82;;
45620;SDS011;31345;51.522;10.702;2023-05-07T13:04:02;11.00;;;9.57;;
45620;SDS011;31345;51.522;10.702;2023-05-07T13:06:36;11.30;;;10.10;;
45620;SDS011;31345;51.522;10.702;2023-05-07T13:09:09;10.32;;;9.32;;
45620;SDS011;31345;51.522;10.702;2023-05-07T13:11:36;11.07;;;9.95;;
45620;SDS011;31345;51.522;10.702;2023-05-07T13:14:04;10.18;;;9.13;;
45620;SDS011;31345;51.522;10.702;2023-05-07T13:16:38;10.25;;;9.05;;
45620;SDS011;31345;51.522;10.702;2023-05-07T13:19:05;10.40;;;9.10;;
45620;SDS011;31345;51.522;10.702;2023-05-07T13:21:38;10.10;;;8.90;;
45620;SDS011;31345;51.522;10.702;2023-05-07T13:24:05;10.30;;;9.30;;
45620;SDS011;31345;51.522;10.702;2023-05-07T13:26:38;10.73;;;9.63;;
45620;SDS011;31345;51.522;10.702;2023-05-07T13:29:06;12.93;;;10.02;;
45620;SDS011;31345;51.522;10.702;2023-05-07T13:31:40;10.77;;;9.68;;
45620;SDS011;31345;51.522;10.702;2023-05-07T13:34:14;10.77;;;9.65;;
45620;SDS011;31345;51.522;10.702;2023-05-07T13:36:42;11.20;;;10.00;;
45620;SDS011;31345;51.522;10.702;2023-05-07T13:39:14;11.05;;;9.95;;
45620;SDS011;31345;51.522;10.702;2023-05-07T13:41:47;11.20;;;10.05;;
45620;SDS011;31345;51.522;10.702;2023-05-07T13:44:19;13.40;;;12.00;;
45620;SDS011;31345;51.522;10.702;2023-05-07T13:46:49;13.88;;;11.48;;
45620;SDS011;31345;51.522;10.702;2023-05-07T13:49:22;14.45;;;12.27;;
45620;SDS011;31345;51.522;10.702;2023-05-07T13:51:49;13.50;;;12.10;;
45620;SDS011;31345;51.522;10.702;2023-05-07T13:54:17;13.57;;;12.18;;
45620;SDS011;31345;51.522;10.702;2023-05-07T13:56:49;13.40;;;11.98;;
45620;SDS011;31345;51.522;10.702;2023-05-07T13:59:17;15.60;;;13.90;;
45620;SDS011;31345;51.522;10.702;2023-05-07T14:01:51;12.77;;;11.48;;
45620;SDS011;31345;51.522;10.702;2023-05-07T14:04:18;14.25;;;12.25;;
45620;SDS011;31345;51.522;10.702;2023-05-07T14:06:51;14.98;;;12.90;;
45620;SDS011;31345;51.522;10.702;2023-05-07T14:09:23;15.27;;;13.68;;
45620;SDS011;31345;51.522;10.702;2023-05-07T14:11:51;14.18;;;12.40;;
45620;SDS011;31345;51.522;10.702;2023-05-07T14:14:18;14.32;;;12.82;;
45620;SDS011;31345;51.522;10.702;2023-05-07T14:16:52;14.88;;;13.27;;
45620;SDS011;31345;51.522;10.702;2023-05-07T14:19:25;13.30;;;11.90;;
45620;SDS011;31345;51.522;10.702;2023-05-07T14:21:53;14.85;;;12.93;;
45620;SDS011;31345;51.522;10.702;2023-05-07T14:24:26;14.40;;;12.25;;
45620;SDS011;31345;51.522;10.702;2023-05-07T14:26:54;14.82;;;12.55;;
45620;SDS011;31345;51.522;10.702;2023-05-07T14:29:27;13.93;;;12.20;;
45620;SDS011;31345;51.522;10.702;2023-05-07T14:32:01;13.68;;;12.27;;
45620;SDS011;31345;51.522;10.702;2023-05-07T14:34:34;16.45;;;13.07;;
45620;SDS011;31345;51.522;10.702;2023-05-07T14:39:48;13.35;;;11.95;;
45620;SDS011;31345;51.522;10.702;2023-05-07T14:42:20;13.63;;;11.40;;
45620;SDS011;31345;51.522;10.702;2023-05-07T14:44:53;13.40;;;11.88;;
45620;SDS011;31345;51.522;10.702;2023-05-07T14:47:30;14.95;;;12.15;;
45620;SDS011;31345;51.522;10.702;2023-05-07T14:50:03;14.65;;;12.23;;
45620;SDS011;31345;51.522;10.702;2023-05-07T14:52:36;14.15;;;11.32;;
45620;SDS011;31345;51.522;10.702;2023-05-07T14:55:09;13.00;;;11.70;;
45620;SDS011;31345;51.522;10.702;2023-05-07T14:57:37;11.98;;;10.73;;
45620;SDS011;31345;51.522;10.702;2023-05-07T15:00:10;12.93;;;10.50;;
45620;SDS011;31345;51.522;10.702;2023-05-07T15:02:45;10.45;;;9.35;;
45620;SDS011;31345;51.522;10.702;2023-05-07T15:05:13;11.50;;;10.30;;
45620;SDS011;31345;51.522;10.702;2023-05-07T15:07:46;11.32;;;10.00;;
45620;SDS011;31345;51.522;10.702;2023-05-07T15:10:18;12.38;;;10.27;;
45620;SDS011;31345;51.522;10.702;2023-05-07T15:12:46;11.52;;;10.32;;
45620;SDS011;31345;51.522;10.702;2023-05-07T15:15:18;14.20;;;11.20;;